<?xml version="1.0" encoding="UTF-8" standalone="no" ?>
<gpx xmlns="http://www.topografix.com/GPX/1/1" xmlns:xsi="http://www.w3.org/2001/XMLSchema-instance" xsi:schemaLocation="http://www.topografix.com/GPX/1/1 http://www.topografix.com/GPX/1/1/gpx.xsd" version="1.1" creator="VisuGPX - https://www.visugpx.com">
  <metadata>
    <name>MortagneSevre_GardeGrenon_9-21km</name>
    <desc><![CDATA[gnerando idor:8309080_9395868_14480589_14480594]]></desc>
  </metadata>
  <trk>
    <name><![CDATA[MortagneS_Garde_9.4km-14480594]]></name>
    <extensions>
      <line xmlns="http://www.topografix.com/GPX/gpx_style/0/2">
        <color>FF0000</color>
        <width>4</width>
      </line>
    </extensions>
    <trkseg>
      <trkpt lat="46.99145" lon="-0.95227">
        <ele>114</ele>
        <time>2023-11-05T14:38:00Z</time>
      </trkpt>
      <trkpt lat="46.99077" lon="-0.95275">
        <ele>113</ele>
        <time>2023-11-05T14:39:41Z</time>
      </trkpt>
      <trkpt lat="46.99068" lon="-0.95272">
        <ele>113</ele>
        <time>2023-11-05T14:39:53Z</time>
      </trkpt>
      <trkpt lat="46.99031" lon="-0.95309">
        <ele>111</ele>
        <time>2023-11-05T14:40:53Z</time>
      </trkpt>
      <trkpt lat="46.99003" lon="-0.95315">
        <ele>110</ele>
        <time>2023-11-05T14:41:31Z</time>
      </trkpt>
      <trkpt lat="46.98951" lon="-0.95305">
        <ele>111</ele>
        <time>2023-11-05T14:42:41Z</time>
      </trkpt>
      <trkpt lat="46.98938" lon="-0.95309">
        <ele>110</ele>
        <time>2023-11-05T14:42:58Z</time>
      </trkpt>
      <trkpt lat="46.98906" lon="-0.95299">
        <ele>112</ele>
        <time>2023-11-05T14:43:42Z</time>
      </trkpt>
      <trkpt lat="46.98881" lon="-0.95294">
        <ele>113</ele>
        <time>2023-11-05T14:44:16Z</time>
      </trkpt>
      <trkpt lat="46.98868" lon="-0.9529">
        <ele>113</ele>
        <time>2023-11-05T14:44:33Z</time>
      </trkpt>
      <trkpt lat="46.98855" lon="-0.95291">
        <ele>114</ele>
        <time>2023-11-05T14:44:51Z</time>
      </trkpt>
      <trkpt lat="46.98793" lon="-0.95292">
        <ele>116</ele>
        <time>2023-11-05T14:46:13Z</time>
      </trkpt>
      <trkpt lat="46.98783" lon="-0.95285">
        <ele>117</ele>
        <time>2023-11-05T14:46:28Z</time>
      </trkpt>
      <trkpt lat="46.98775" lon="-0.95285">
        <ele>117</ele>
        <time>2023-11-05T14:46:39Z</time>
      </trkpt>
      <trkpt lat="46.98769" lon="-0.95291">
        <ele>117</ele>
        <time>2023-11-05T14:46:49Z</time>
      </trkpt>
      <trkpt lat="46.98738" lon="-0.95339">
        <ele>116</ele>
        <time>2023-11-05T14:47:49Z</time>
      </trkpt>
      <trkpt lat="46.98713" lon="-0.95318">
        <ele>118</ele>
        <time>2023-11-05T14:48:27Z</time>
      </trkpt>
      <trkpt lat="46.98706" lon="-0.95314">
        <ele>118</ele>
        <time>2023-11-05T14:48:37Z</time>
      </trkpt>
      <trkpt lat="46.98691" lon="-0.95323">
        <ele>119</ele>
        <time>2023-11-05T14:48:59Z</time>
      </trkpt>
      <trkpt lat="46.98674" lon="-0.9532">
        <ele>120</ele>
        <time>2023-11-05T14:49:22Z</time>
      </trkpt>
      <trkpt lat="46.9865" lon="-0.95308">
        <ele>119</ele>
        <time>2023-11-05T14:49:56Z</time>
      </trkpt>
      <trkpt lat="46.98618" lon="-0.95242">
        <ele>118</ele>
        <time>2023-11-05T14:51:09Z</time>
      </trkpt>
      <trkpt lat="46.98606" lon="-0.95225">
        <ele>118</ele>
        <time>2023-11-05T14:51:32Z</time>
      </trkpt>
      <trkpt lat="46.98586" lon="-0.95209">
        <ele>118</ele>
        <time>2023-11-05T14:52:02Z</time>
      </trkpt>
      <trkpt lat="46.98518" lon="-0.95141">
        <ele>116</ele>
        <time>2023-11-05T14:53:52Z</time>
      </trkpt>
      <trkpt lat="46.98464" lon="-0.9511">
        <ele>114</ele>
        <time>2023-11-05T14:55:09Z</time>
      </trkpt>
      <trkpt lat="46.98436" lon="-0.95093">
        <ele>113</ele>
        <time>2023-11-05T14:55:50Z</time>
      </trkpt>
      <trkpt lat="46.98415" lon="-0.95084">
        <ele>112</ele>
        <time>2023-11-05T14:56:19Z</time>
      </trkpt>
      <trkpt lat="46.9841" lon="-0.95085">
        <ele>112</ele>
        <time>2023-11-05T14:56:26Z</time>
      </trkpt>
      <trkpt lat="46.98385" lon="-0.95085">
        <ele>110</ele>
        <time>2023-11-05T14:56:59Z</time>
      </trkpt>
      <trkpt lat="46.98386" lon="-0.9504">
        <ele>109</ele>
        <time>2023-11-05T14:57:40Z</time>
      </trkpt>
      <trkpt lat="46.98422" lon="-0.95022">
        <ele>112</ele>
        <time>2023-11-05T14:58:31Z</time>
      </trkpt>
      <trkpt lat="46.98457" lon="-0.94961">
        <ele>114</ele>
        <time>2023-11-05T14:59:43Z</time>
      </trkpt>
      <trkpt lat="46.98525" lon="-0.94868">
        <ele>117</ele>
        <time>2023-11-05T15:01:47Z</time>
      </trkpt>
      <trkpt lat="46.98511" lon="-0.94831">
        <ele>117</ele>
        <time>2023-11-05T15:02:26Z</time>
      </trkpt>
      <trkpt lat="46.98454" lon="-0.94766">
        <ele>119</ele>
        <time>2023-11-05T15:04:02Z</time>
      </trkpt>
      <trkpt lat="46.98444" lon="-0.94773">
        <ele>119</ele>
        <time>2023-11-05T15:04:17Z</time>
      </trkpt>
      <trkpt lat="46.98092" lon="-0.94365">
        <ele>108</ele>
        <time>2023-11-05T15:14:16Z</time>
      </trkpt>
      <trkpt lat="46.98017" lon="-0.94278">
        <ele>105</ele>
        <time>2023-11-05T15:16:24Z</time>
      </trkpt>
      <trkpt lat="46.98011" lon="-0.94278">
        <ele>105</ele>
        <time>2023-11-05T15:16:32Z</time>
      </trkpt>
      <trkpt lat="46.98004" lon="-0.94277">
        <ele>105</ele>
        <time>2023-11-05T15:16:41Z</time>
      </trkpt>
      <trkpt lat="46.97962" lon="-0.94288">
        <ele>102</ele>
        <time>2023-11-05T15:17:38Z</time>
      </trkpt>
      <trkpt lat="46.97943" lon="-0.94288">
        <ele>101</ele>
        <time>2023-11-05T15:18:03Z</time>
      </trkpt>
      <trkpt lat="46.97926" lon="-0.94275">
        <ele>100</ele>
        <time>2023-11-05T15:18:29Z</time>
      </trkpt>
      <trkpt lat="46.97885" lon="-0.94228">
        <ele>96</ele>
        <time>2023-11-05T15:19:38Z</time>
      </trkpt>
      <trkpt lat="46.97852" lon="-0.94199">
        <ele>94</ele>
        <time>2023-11-05T15:20:30Z</time>
      </trkpt>
      <trkpt lat="46.97806" lon="-0.94167">
        <ele>93</ele>
        <time>2023-11-05T15:21:38Z</time>
      </trkpt>
      <trkpt lat="46.97758" lon="-0.94097">
        <ele>94</ele>
        <time>2023-11-05T15:23:08Z</time>
      </trkpt>
      <trkpt lat="46.97727" lon="-0.94093">
        <ele>95</ele>
        <time>2023-11-05T15:23:49Z</time>
      </trkpt>
      <trkpt lat="46.97678" lon="-0.94059">
        <ele>99</ele>
        <time>2023-11-05T15:25:02Z</time>
      </trkpt>
      <trkpt lat="46.97671" lon="-0.94065">
        <ele>99</ele>
        <time>2023-11-05T15:25:13Z</time>
      </trkpt>
      <trkpt lat="46.97668" lon="-0.94059">
        <ele>100</ele>
        <time>2023-11-05T15:25:19Z</time>
      </trkpt>
      <trkpt lat="46.97684" lon="-0.94034">
        <ele>99</ele>
        <time>2023-11-05T15:25:51Z</time>
      </trkpt>
      <trkpt lat="46.9771" lon="-0.9398">
        <ele>100</ele>
        <time>2023-11-05T15:26:51Z</time>
      </trkpt>
      <trkpt lat="46.97721" lon="-0.93956">
        <ele>100</ele>
        <time>2023-11-05T15:27:17Z</time>
      </trkpt>
      <trkpt lat="46.97757" lon="-0.93981">
        <ele>98</ele>
        <time>2023-11-05T15:28:10Z</time>
      </trkpt>
      <trkpt lat="46.97762" lon="-0.93975">
        <ele>98</ele>
        <time>2023-11-05T15:28:19Z</time>
      </trkpt>
      <trkpt lat="46.97754" lon="-0.93932">
        <ele>99</ele>
        <time>2023-11-05T15:28:59Z</time>
      </trkpt>
      <trkpt lat="46.97754" lon="-0.93911">
        <ele>100</ele>
        <time>2023-11-05T15:29:19Z</time>
      </trkpt>
      <trkpt lat="46.97748" lon="-0.93886">
        <ele>101</ele>
        <time>2023-11-05T15:29:43Z</time>
      </trkpt>
      <trkpt lat="46.97754" lon="-0.93867">
        <ele>101</ele>
        <time>2023-11-05T15:30:02Z</time>
      </trkpt>
      <trkpt lat="46.9776" lon="-0.93808">
        <ele>102</ele>
        <time>2023-11-05T15:30:56Z</time>
      </trkpt>
      <trkpt lat="46.97749" lon="-0.93781">
        <ele>103</ele>
        <time>2023-11-05T15:31:25Z</time>
      </trkpt>
      <trkpt lat="46.97742" lon="-0.93752">
        <ele>103</ele>
        <time>2023-11-05T15:31:53Z</time>
      </trkpt>
      <trkpt lat="46.97733" lon="-0.93736">
        <ele>104</ele>
        <time>2023-11-05T15:32:12Z</time>
      </trkpt>
      <trkpt lat="46.97705" lon="-0.93709">
        <ele>105</ele>
        <time>2023-11-05T15:32:56Z</time>
      </trkpt>
      <trkpt lat="46.97669" lon="-0.93722">
        <ele>107</ele>
        <time>2023-11-05T15:33:46Z</time>
      </trkpt>
      <trkpt lat="46.97642" lon="-0.93667">
        <ele>108</ele>
        <time>2023-11-05T15:34:47Z</time>
      </trkpt>
      <trkpt lat="46.97624" lon="-0.93679">
        <ele>109</ele>
        <time>2023-11-05T15:35:14Z</time>
      </trkpt>
      <trkpt lat="46.97603" lon="-0.9368">
        <ele>111</ele>
        <time>2023-11-05T15:35:42Z</time>
      </trkpt>
      <trkpt lat="46.97607" lon="-0.93739">
        <ele>111</ele>
        <time>2023-11-05T15:36:36Z</time>
      </trkpt>
      <trkpt lat="46.9762" lon="-0.93805">
        <ele>109</ele>
        <time>2023-11-05T15:37:38Z</time>
      </trkpt>
      <trkpt lat="46.97618" lon="-0.93838">
        <ele>108</ele>
        <time>2023-11-05T15:38:09Z</time>
      </trkpt>
      <trkpt lat="46.97574" lon="-0.93851">
        <ele>110</ele>
        <time>2023-11-05T15:39:08Z</time>
      </trkpt>
      <trkpt lat="46.97556" lon="-0.93835">
        <ele>112</ele>
        <time>2023-11-05T15:39:37Z</time>
      </trkpt>
      <trkpt lat="46.97542" lon="-0.93879">
        <ele>111</ele>
        <time>2023-11-05T15:40:21Z</time>
      </trkpt>
      <trkpt lat="46.97523" lon="-0.93861">
        <ele>113</ele>
        <time>2023-11-05T15:40:51Z</time>
      </trkpt>
      <trkpt lat="46.97484" lon="-0.93842">
        <ele>116</ele>
        <time>2023-11-05T15:41:46Z</time>
      </trkpt>
      <trkpt lat="46.97442" lon="-0.93827">
        <ele>120</ele>
        <time>2023-11-05T15:42:44Z</time>
      </trkpt>
      <trkpt lat="46.974" lon="-0.93789">
        <ele>124</ele>
        <time>2023-11-05T15:43:49Z</time>
      </trkpt>
      <trkpt lat="46.97391" lon="-0.93777">
        <ele>125</ele>
        <time>2023-11-05T15:44:06Z</time>
      </trkpt>
      <trkpt lat="46.9735" lon="-0.93743">
        <ele>128</ele>
        <time>2023-11-05T15:45:08Z</time>
      </trkpt>
      <trkpt lat="46.97311" lon="-0.93701">
        <ele>129</ele>
        <time>2023-11-05T15:46:13Z</time>
      </trkpt>
      <trkpt lat="46.97306" lon="-0.93653">
        <ele>130</ele>
        <time>2023-11-05T15:46:57Z</time>
      </trkpt>
      <trkpt lat="46.9729" lon="-0.93608">
        <ele>132</ele>
        <time>2023-11-05T15:47:43Z</time>
      </trkpt>
      <trkpt lat="46.97234" lon="-0.93524">
        <ele>135</ele>
        <time>2023-11-05T15:49:30Z</time>
      </trkpt>
      <trkpt lat="46.97205" lon="-0.9349">
        <ele>137</ele>
        <time>2023-11-05T15:50:20Z</time>
      </trkpt>
      <trkpt lat="46.97095" lon="-0.93448">
        <ele>140</ele>
        <time>2023-11-05T15:52:52Z</time>
      </trkpt>
      <trkpt lat="46.96985" lon="-0.93219">
        <ele>130</ele>
        <time>2023-11-05T15:57:07Z</time>
      </trkpt>
      <trkpt lat="46.96969" lon="-0.9321">
        <ele>129</ele>
        <time>2023-11-05T15:57:30Z</time>
      </trkpt>
      <trkpt lat="46.96895" lon="-0.93264">
        <ele>130</ele>
        <time>2023-11-05T15:59:20Z</time>
      </trkpt>
      <trkpt lat="46.96835" lon="-0.93123">
        <ele>124</ele>
        <time>2023-11-05T16:01:51Z</time>
      </trkpt>
      <trkpt lat="46.96763" lon="-0.93045">
        <ele>115</ele>
        <time>2023-11-05T16:03:51Z</time>
      </trkpt>
      <trkpt lat="46.96745" lon="-0.93011">
        <ele>111</ele>
        <time>2023-11-05T16:04:30Z</time>
      </trkpt>
      <trkpt lat="46.96741" lon="-0.92993">
        <ele>109</ele>
        <time>2023-11-05T16:04:47Z</time>
      </trkpt>
      <trkpt lat="46.9674" lon="-0.92987">
        <ele>108</ele>
        <time>2023-11-05T16:04:53Z</time>
      </trkpt>
      <trkpt lat="46.96713" lon="-0.9299">
        <ele>106</ele>
        <time>2023-11-05T16:05:29Z</time>
      </trkpt>
      <trkpt lat="46.96653" lon="-0.9305">
        <ele>106</ele>
        <time>2023-11-05T16:07:06Z</time>
      </trkpt>
      <trkpt lat="46.9661" lon="-0.93138">
        <ele>106</ele>
        <time>2023-11-05T16:08:44Z</time>
      </trkpt>
      <trkpt lat="46.966" lon="-0.93219">
        <ele>107</ele>
        <time>2023-11-05T16:09:59Z</time>
      </trkpt>
      <trkpt lat="46.96596" lon="-0.93285">
        <ele>107</ele>
        <time>2023-11-05T16:11:00Z</time>
      </trkpt>
      <trkpt lat="46.96565" lon="-0.93494">
        <ele>104</ele>
        <time>2023-11-05T16:14:14Z</time>
      </trkpt>
      <trkpt lat="46.96571" lon="-0.93555">
        <ele>105</ele>
        <time>2023-11-05T16:15:11Z</time>
      </trkpt>
      <trkpt lat="46.96556" lon="-0.93695">
        <ele>103</ele>
        <time>2023-11-05T16:17:20Z</time>
      </trkpt>
      <trkpt lat="46.9656" lon="-0.9372">
        <ele>104</ele>
        <time>2023-11-05T16:17:43Z</time>
      </trkpt>
      <trkpt lat="46.9655" lon="-0.93757">
        <ele>102</ele>
        <time>2023-11-05T16:18:19Z</time>
      </trkpt>
      <trkpt lat="46.96547" lon="-0.93796">
        <ele>100</ele>
        <time>2023-11-05T16:18:55Z</time>
      </trkpt>
      <trkpt lat="46.96554" lon="-0.93828">
        <ele>100</ele>
        <time>2023-11-05T16:19:26Z</time>
      </trkpt>
      <trkpt lat="46.96552" lon="-0.93862">
        <ele>99</ele>
        <time>2023-11-05T16:19:57Z</time>
      </trkpt>
      <trkpt lat="46.96561" lon="-0.93958">
        <ele>97</ele>
        <time>2023-11-05T16:21:25Z</time>
      </trkpt>
      <trkpt lat="46.96564" lon="-0.93984">
        <ele>95</ele>
        <time>2023-11-05T16:21:49Z</time>
      </trkpt>
      <trkpt lat="46.96587" lon="-0.94061">
        <ele>92</ele>
        <time>2023-11-05T16:23:05Z</time>
      </trkpt>
      <trkpt lat="46.96591" lon="-0.94073">
        <ele>93</ele>
        <time>2023-11-05T16:23:18Z</time>
      </trkpt>
      <trkpt lat="46.96608" lon="-0.94057">
        <ele>96</ele>
        <time>2023-11-05T16:23:45Z</time>
      </trkpt>
      <trkpt lat="46.9662" lon="-0.94054">
        <ele>98</ele>
        <time>2023-11-05T16:24:01Z</time>
      </trkpt>
      <trkpt lat="46.96632" lon="-0.94065">
        <ele>99</ele>
        <time>2023-11-05T16:24:20Z</time>
      </trkpt>
      <trkpt lat="46.96662" lon="-0.94129">
        <ele>100</ele>
        <time>2023-11-05T16:25:30Z</time>
      </trkpt>
      <trkpt lat="46.96679" lon="-0.94172">
        <ele>101</ele>
        <time>2023-11-05T16:26:16Z</time>
      </trkpt>
      <trkpt lat="46.96685" lon="-0.94202">
        <ele>101</ele>
        <time>2023-11-05T16:26:44Z</time>
      </trkpt>
      <trkpt lat="46.96734" lon="-0.94274">
        <ele>106</ele>
        <time>2023-11-05T16:28:17Z</time>
      </trkpt>
      <trkpt lat="46.96763" lon="-0.94307">
        <ele>106</ele>
        <time>2023-11-05T16:29:06Z</time>
      </trkpt>
      <trkpt lat="46.96796" lon="-0.94323">
        <ele>106</ele>
        <time>2023-11-05T16:29:52Z</time>
      </trkpt>
      <trkpt lat="46.96842" lon="-0.94314">
        <ele>109</ele>
        <time>2023-11-05T16:30:54Z</time>
      </trkpt>
      <trkpt lat="46.96895" lon="-0.94287">
        <ele>108</ele>
        <time>2023-11-05T16:32:09Z</time>
      </trkpt>
      <trkpt lat="46.96911" lon="-0.94261">
        <ele>112</ele>
        <time>2023-11-05T16:32:41Z</time>
      </trkpt>
      <trkpt lat="46.96945" lon="-0.94232">
        <ele>111</ele>
        <time>2023-11-05T16:33:33Z</time>
      </trkpt>
      <trkpt lat="46.96971" lon="-0.9422">
        <ele>110</ele>
        <time>2023-11-05T16:34:10Z</time>
      </trkpt>
      <trkpt lat="46.97074" lon="-0.9425">
        <ele>103</ele>
        <time>2023-11-05T16:36:30Z</time>
      </trkpt>
      <trkpt lat="46.971" lon="-0.94246">
        <ele>104</ele>
        <time>2023-11-05T16:37:05Z</time>
      </trkpt>
      <trkpt lat="46.97113" lon="-0.94226">
        <ele>107</ele>
        <time>2023-11-05T16:37:30Z</time>
      </trkpt>
      <trkpt lat="46.97133" lon="-0.94158">
        <ele>112</ele>
        <time>2023-11-05T16:38:37Z</time>
      </trkpt>
      <trkpt lat="46.97142" lon="-0.94148">
        <ele>112</ele>
        <time>2023-11-05T16:38:52Z</time>
      </trkpt>
      <trkpt lat="46.97161" lon="-0.94144">
        <ele>112</ele>
        <time>2023-11-05T16:39:18Z</time>
      </trkpt>
      <trkpt lat="46.97163" lon="-0.94168">
        <ele>111</ele>
        <time>2023-11-05T16:39:40Z</time>
      </trkpt>
      <trkpt lat="46.9716" lon="-0.94227">
        <ele>109</ele>
        <time>2023-11-05T16:40:34Z</time>
      </trkpt>
      <trkpt lat="46.97161" lon="-0.9428">
        <ele>102</ele>
        <time>2023-11-05T16:41:22Z</time>
      </trkpt>
      <trkpt lat="46.97151" lon="-0.94302">
        <ele>97</ele>
        <time>2023-11-05T16:41:46Z</time>
      </trkpt>
      <trkpt lat="46.97147" lon="-0.94324">
        <ele>93</ele>
        <time>2023-11-05T16:42:07Z</time>
      </trkpt>
      <trkpt lat="46.9716" lon="-0.94295">
        <ele>99</ele>
        <time>2023-11-05T16:42:39Z</time>
      </trkpt>
      <trkpt lat="46.97174" lon="-0.94274">
        <ele>105</ele>
        <time>2023-11-05T16:43:05Z</time>
      </trkpt>
      <trkpt lat="46.97182" lon="-0.9428">
        <ele>105</ele>
        <time>2023-11-05T16:43:17Z</time>
      </trkpt>
      <trkpt lat="46.97189" lon="-0.94299">
        <ele>103</ele>
        <time>2023-11-05T16:43:37Z</time>
      </trkpt>
      <trkpt lat="46.97223" lon="-0.94353">
        <ele>103</ele>
        <time>2023-11-05T16:44:44Z</time>
      </trkpt>
      <trkpt lat="46.97252" lon="-0.94383">
        <ele>107</ele>
        <time>2023-11-05T16:45:31Z</time>
      </trkpt>
      <trkpt lat="46.97284" lon="-0.94407">
        <ele>111</ele>
        <time>2023-11-05T16:46:19Z</time>
      </trkpt>
      <trkpt lat="46.97327" lon="-0.94448">
        <ele>115</ele>
        <time>2023-11-05T16:47:28Z</time>
      </trkpt>
      <trkpt lat="46.97348" lon="-0.9446">
        <ele>116</ele>
        <time>2023-11-05T16:47:58Z</time>
      </trkpt>
      <trkpt lat="46.97362" lon="-0.94459">
        <ele>116</ele>
        <time>2023-11-05T16:48:16Z</time>
      </trkpt>
      <trkpt lat="46.97375" lon="-0.94455">
        <ele>116</ele>
        <time>2023-11-05T16:48:34Z</time>
      </trkpt>
      <trkpt lat="46.97411" lon="-0.94458">
        <ele>116</ele>
        <time>2023-11-05T16:49:22Z</time>
      </trkpt>
      <trkpt lat="46.97443" lon="-0.94511">
        <ele>111</ele>
        <time>2023-11-05T16:50:27Z</time>
      </trkpt>
      <trkpt lat="46.97462" lon="-0.9454">
        <ele>109</ele>
        <time>2023-11-05T16:51:03Z</time>
      </trkpt>
      <trkpt lat="46.97474" lon="-0.9456">
        <ele>107</ele>
        <time>2023-11-05T16:51:28Z</time>
      </trkpt>
      <trkpt lat="46.9748" lon="-0.94569">
        <ele>107</ele>
        <time>2023-11-05T16:51:39Z</time>
      </trkpt>
      <trkpt lat="46.97434" lon="-0.94604">
        <ele>103</ele>
        <time>2023-11-05T16:52:48Z</time>
      </trkpt>
      <trkpt lat="46.97422" lon="-0.9463">
        <ele>100</ele>
        <time>2023-11-05T16:53:17Z</time>
      </trkpt>
      <trkpt lat="46.97412" lon="-0.94636">
        <ele>99</ele>
        <time>2023-11-05T16:53:31Z</time>
      </trkpt>
      <trkpt lat="46.97399" lon="-0.94677">
        <ele>92</ele>
        <time>2023-11-05T16:54:12Z</time>
      </trkpt>
      <trkpt lat="46.97379" lon="-0.94706">
        <ele>86</ele>
        <time>2023-11-05T16:54:50Z</time>
      </trkpt>
      <trkpt lat="46.9738" lon="-0.94717">
        <ele>85</ele>
        <time>2023-11-05T16:55:00Z</time>
      </trkpt>
      <trkpt lat="46.97408" lon="-0.94744">
        <ele>88</ele>
        <time>2023-11-05T16:55:45Z</time>
      </trkpt>
      <trkpt lat="46.97413" lon="-0.94769">
        <ele>86</ele>
        <time>2023-11-05T16:56:08Z</time>
      </trkpt>
      <trkpt lat="46.97434" lon="-0.94793">
        <ele>86</ele>
        <time>2023-11-05T16:56:44Z</time>
      </trkpt>
      <trkpt lat="46.97451" lon="-0.94825">
        <ele>85</ele>
        <time>2023-11-05T16:57:21Z</time>
      </trkpt>
      <trkpt lat="46.97472" lon="-0.94842">
        <ele>86</ele>
        <time>2023-11-05T16:57:53Z</time>
      </trkpt>
      <trkpt lat="46.97498" lon="-0.94879">
        <ele>85</ele>
        <time>2023-11-05T16:58:41Z</time>
      </trkpt>
      <trkpt lat="46.97541" lon="-0.94906">
        <ele>83</ele>
        <time>2023-11-05T16:59:44Z</time>
      </trkpt>
      <trkpt lat="46.97573" lon="-0.94911">
        <ele>84</ele>
        <time>2023-11-05T17:00:27Z</time>
      </trkpt>
      <trkpt lat="46.97647" lon="-0.94848">
        <ele>81</ele>
        <time>2023-11-05T17:02:21Z</time>
      </trkpt>
      <trkpt lat="46.97656" lon="-0.9483">
        <ele>81</ele>
        <time>2023-11-05T17:02:41Z</time>
      </trkpt>
      <trkpt lat="46.97724" lon="-0.94705">
        <ele>83</ele>
        <time>2023-11-05T17:05:07Z</time>
      </trkpt>
      <trkpt lat="46.97735" lon="-0.94695">
        <ele>82</ele>
        <time>2023-11-05T17:05:24Z</time>
      </trkpt>
      <trkpt lat="46.97793" lon="-0.94728">
        <ele>80</ele>
        <time>2023-11-05T17:06:47Z</time>
      </trkpt>
      <trkpt lat="46.97835" lon="-0.94724">
        <ele>81</ele>
        <time>2023-11-05T17:07:43Z</time>
      </trkpt>
      <trkpt lat="46.97875" lon="-0.94737">
        <ele>82</ele>
        <time>2023-11-05T17:08:38Z</time>
      </trkpt>
      <trkpt lat="46.97902" lon="-0.94757">
        <ele>81</ele>
        <time>2023-11-05T17:09:18Z</time>
      </trkpt>
      <trkpt lat="46.97958" lon="-0.948">
        <ele>83</ele>
        <time>2023-11-05T17:10:43Z</time>
      </trkpt>
      <trkpt lat="46.97983" lon="-0.94834">
        <ele>83</ele>
        <time>2023-11-05T17:11:28Z</time>
      </trkpt>
      <trkpt lat="46.97998" lon="-0.94882">
        <ele>82</ele>
        <time>2023-11-05T17:12:16Z</time>
      </trkpt>
      <trkpt lat="46.98039" lon="-0.9492">
        <ele>84</ele>
        <time>2023-11-05T17:13:21Z</time>
      </trkpt>
      <trkpt lat="46.98054" lon="-0.94937">
        <ele>84</ele>
        <time>2023-11-05T17:13:46Z</time>
      </trkpt>
      <trkpt lat="46.98076" lon="-0.94958">
        <ele>83</ele>
        <time>2023-11-05T17:14:21Z</time>
      </trkpt>
      <trkpt lat="46.98119" lon="-0.95021">
        <ele>83</ele>
        <time>2023-11-05T17:15:42Z</time>
      </trkpt>
      <trkpt lat="46.98137" lon="-0.95077">
        <ele>83</ele>
        <time>2023-11-05T17:16:39Z</time>
      </trkpt>
      <trkpt lat="46.98149" lon="-0.95103">
        <ele>83</ele>
        <time>2023-11-05T17:17:07Z</time>
      </trkpt>
      <trkpt lat="46.98155" lon="-0.95106">
        <ele>83</ele>
        <time>2023-11-05T17:17:16Z</time>
      </trkpt>
      <trkpt lat="46.98158" lon="-0.95113">
        <ele>83</ele>
        <time>2023-11-05T17:17:23Z</time>
      </trkpt>
      <trkpt lat="46.98176" lon="-0.95123">
        <ele>85</ele>
        <time>2023-11-05T17:17:49Z</time>
      </trkpt>
      <trkpt lat="46.98191" lon="-0.95141">
        <ele>85</ele>
        <time>2023-11-05T17:18:15Z</time>
      </trkpt>
      <trkpt lat="46.98202" lon="-0.95153">
        <ele>85</ele>
        <time>2023-11-05T17:18:33Z</time>
      </trkpt>
      <trkpt lat="46.98212" lon="-0.9517">
        <ele>85</ele>
        <time>2023-11-05T17:18:54Z</time>
      </trkpt>
      <trkpt lat="46.98222" lon="-0.95192">
        <ele>84</ele>
        <time>2023-11-05T17:19:18Z</time>
      </trkpt>
      <trkpt lat="46.98246" lon="-0.95232">
        <ele>79</ele>
        <time>2023-11-05T17:20:06Z</time>
      </trkpt>
      <trkpt lat="46.9825" lon="-0.95241">
        <ele>78</ele>
        <time>2023-11-05T17:20:16Z</time>
      </trkpt>
      <trkpt lat="46.98266" lon="-0.95261">
        <ele>79</ele>
        <time>2023-11-05T17:20:44Z</time>
      </trkpt>
      <trkpt lat="46.98277" lon="-0.95268">
        <ele>80</ele>
        <time>2023-11-05T17:21:00Z</time>
      </trkpt>
      <trkpt lat="46.9829" lon="-0.95277">
        <ele>82</ele>
        <time>2023-11-05T17:21:19Z</time>
      </trkpt>
      <trkpt lat="46.98299" lon="-0.95285">
        <ele>82</ele>
        <time>2023-11-05T17:21:33Z</time>
      </trkpt>
      <trkpt lat="46.98312" lon="-0.95284">
        <ele>84</ele>
        <time>2023-11-05T17:21:51Z</time>
      </trkpt>
      <trkpt lat="46.98317" lon="-0.9529">
        <ele>84</ele>
        <time>2023-11-05T17:21:59Z</time>
      </trkpt>
      <trkpt lat="46.98328" lon="-0.953">
        <ele>84</ele>
        <time>2023-11-05T17:22:17Z</time>
      </trkpt>
      <trkpt lat="46.98331" lon="-0.95303">
        <ele>83</ele>
        <time>2023-11-05T17:22:21Z</time>
      </trkpt>
      <trkpt lat="46.98337" lon="-0.95306">
        <ele>84</ele>
        <time>2023-11-05T17:22:30Z</time>
      </trkpt>
      <trkpt lat="46.98343" lon="-0.95311">
        <ele>84</ele>
        <time>2023-11-05T17:22:39Z</time>
      </trkpt>
      <trkpt lat="46.98349" lon="-0.95314">
        <ele>85</ele>
        <time>2023-11-05T17:22:48Z</time>
      </trkpt>
      <trkpt lat="46.98384" lon="-0.95352">
        <ele>86</ele>
        <time>2023-11-05T17:23:46Z</time>
      </trkpt>
      <trkpt lat="46.98444" lon="-0.95438">
        <ele>82</ele>
        <time>2023-11-05T17:25:38Z</time>
      </trkpt>
      <trkpt lat="46.98475" lon="-0.95437">
        <ele>87</ele>
        <time>2023-11-05T17:26:19Z</time>
      </trkpt>
      <trkpt lat="46.98502" lon="-0.95417">
        <ele>94</ele>
        <time>2023-11-05T17:26:59Z</time>
      </trkpt>
      <trkpt lat="46.98508" lon="-0.95428">
        <ele>94</ele>
        <time>2023-11-05T17:27:12Z</time>
      </trkpt>
      <trkpt lat="46.98522" lon="-0.95445">
        <ele>96</ele>
        <time>2023-11-05T17:27:36Z</time>
      </trkpt>
      <trkpt lat="46.98532" lon="-0.95479">
        <ele>94</ele>
        <time>2023-11-05T17:28:10Z</time>
      </trkpt>
      <trkpt lat="46.98553" lon="-0.95548">
        <ele>95</ele>
        <time>2023-11-05T17:29:19Z</time>
      </trkpt>
      <trkpt lat="46.98561" lon="-0.95548">
        <ele>97</ele>
        <time>2023-11-05T17:29:30Z</time>
      </trkpt>
      <trkpt lat="46.98565" lon="-0.95553">
        <ele>97</ele>
        <time>2023-11-05T17:29:37Z</time>
      </trkpt>
      <trkpt lat="46.9859" lon="-0.95554">
        <ele>103</ele>
        <time>2023-11-05T17:30:10Z</time>
      </trkpt>
      <trkpt lat="46.986" lon="-0.9555">
        <ele>104</ele>
        <time>2023-11-05T17:30:24Z</time>
      </trkpt>
      <trkpt lat="46.98666" lon="-0.95467">
        <ele>114</ele>
        <time>2023-11-05T17:32:20Z</time>
      </trkpt>
      <trkpt lat="46.98722" lon="-0.95391">
        <ele>115</ele>
        <time>2023-11-05T17:34:02Z</time>
      </trkpt>
      <trkpt lat="46.98724" lon="-0.95378">
        <ele>115</ele>
        <time>2023-11-05T17:34:14Z</time>
      </trkpt>
      <trkpt lat="46.98738" lon="-0.9535">
        <ele>115</ele>
        <time>2023-11-05T17:34:45Z</time>
      </trkpt>
      <trkpt lat="46.98758" lon="-0.95376">
        <ele>113</ele>
        <time>2023-11-05T17:35:21Z</time>
      </trkpt>
      <trkpt lat="46.98794" lon="-0.95383">
        <ele>111</ele>
        <time>2023-11-05T17:36:10Z</time>
      </trkpt>
      <trkpt lat="46.98838" lon="-0.95381">
        <ele>108</ele>
        <time>2023-11-05T17:37:08Z</time>
      </trkpt>
      <trkpt lat="46.98849" lon="-0.95359">
        <ele>108</ele>
        <time>2023-11-05T17:37:33Z</time>
      </trkpt>
      <trkpt lat="46.98891" lon="-0.95357">
        <ele>107</ele>
        <time>2023-11-05T17:38:29Z</time>
      </trkpt>
      <trkpt lat="46.98904" lon="-0.95329">
        <ele>109</ele>
        <time>2023-11-05T17:39:00Z</time>
      </trkpt>
      <trkpt lat="46.98928" lon="-0.95319">
        <ele>109</ele>
        <time>2023-11-05T17:39:33Z</time>
      </trkpt>
      <trkpt lat="46.98936" lon="-0.95313">
        <ele>110</ele>
        <time>2023-11-05T17:39:45Z</time>
      </trkpt>
      <trkpt lat="46.98949" lon="-0.95309">
        <ele>110</ele>
        <time>2023-11-05T17:40:03Z</time>
      </trkpt>
      <trkpt lat="46.98993" lon="-0.95309">
        <ele>111</ele>
        <time>2023-11-05T17:41:02Z</time>
      </trkpt>
      <trkpt lat="46.99009" lon="-0.9531">
        <ele>111</ele>
        <time>2023-11-05T17:41:23Z</time>
      </trkpt>
      <trkpt lat="46.99029" lon="-0.95304">
        <ele>111</ele>
        <time>2023-11-05T17:41:50Z</time>
      </trkpt>
      <trkpt lat="46.9905" lon="-0.95341">
        <ele>109</ele>
        <time>2023-11-05T17:42:34Z</time>
      </trkpt>
      <trkpt lat="46.99138" lon="-0.95302">
        <ele>112</ele>
        <time>2023-11-05T17:44:37Z</time>
      </trkpt>
      <trkpt lat="46.99166" lon="-0.95288">
        <ele>113</ele>
        <time>2023-11-05T17:45:16Z</time>
      </trkpt>
      <trkpt lat="46.99147" lon="-0.95238">
        <ele>114</ele>
        <time>2023-11-05T17:46:08Z</time>
      </trkpt>
    </trkseg>
  </trk>
</gpx>